Terminal Aerodrome Forecast
Issued by NWS Des Moines, IA

Home | Current Version | Previous Version | Text Only | Print | Product List | Glossary On
Versions: 1 2 3 4 5 6 7 8 9 10 11 12 13 14 15 16 17 18 19 20 21 22 23 24 25 26 27 28 29 30 31 32 33 34
000
FTUS43 KDMX 242339
TAFALO
TAF
KALO 242339Z 2500/2524 02010KT P6SM SCT025 BKN035
     FM250400 03003KT P6SM SCT035
     FM250900 VRB03KT 5SM BR SCT010
     FM251300 08004KT P6SM BKN010
     FM251500 16005KT P6SM SCT120
     FM252300 16007KT P6SM BKN200=

USA.gov is the U.S. government's official web portal to all federal, state and local government web resources and services.